createdAt,value
2023-12-23T00:02:15.002Z,29.20
2023-12-23T00:04:47.076Z,30.50
2023-12-23T00:07:18.960Z,27.00
2023-12-23T00:09:50.890Z,33.80
2023-12-23T00:12:22.900Z,23.50
2023-12-23T00:14:54.742Z,27.50
2023-12-23T00:17:26.882Z,28.00
2023-12-23T00:19:59.170Z,27.50
2023-12-23T00:22:31.324Z,25.00
2023-12-23T00:25:04.043Z,28.50
2023-12-23T00:27:35.913Z,26.30
2023-12-23T00:30:09.976Z,26.40
2023-12-23T00:32:42.560Z,27.00
2023-12-23T00:35:14.851Z,24.10
2023-12-23T00:37:47.744Z,25.80
2023-12-23T00:40:19.958Z,23.00
2023-12-23T00:42:52.295Z,28.70
2023-12-23T00:45:24.093Z,24.80
2023-12-23T00:47:56.377Z,27.30
2023-12-23T00:50:28.701Z,31.00
2023-12-23T00:53:03.608Z,28.50
2023-12-23T00:55:35.512Z,33.50
2023-12-23T00:58:07.722Z,31.40
2023-12-23T01:00:40.328Z,33.70
2023-12-23T01:03:12.147Z,34.20
2023-12-23T01:05:44.165Z,30.90
2023-12-23T01:08:16.322Z,32.00
2023-12-23T01:10:48.326Z,32.80
2023-12-23T01:13:21.103Z,25.70
2023-12-23T01:15:52.979Z,31.00
2023-12-23T01:18:25.790Z,25.90
2023-12-23T01:20:57.775Z,29.80
2023-12-23T01:23:29.687Z,26.00
2023-12-23T01:26:01.557Z,24.80
2023-12-23T01:28:33.494Z,24.70
2023-12-23T01:31:05.752Z,25.30
2023-12-23T01:33:37.705Z,22.50
2023-12-23T01:36:10.329Z,22.20
2023-12-23T01:38:42.395Z,23.10
2023-12-23T01:41:14.388Z,20.70
2023-12-23T01:43:46.517Z,24.90
2023-12-23T01:46:18.638Z,21.60
2023-12-23T01:48:50.483Z,19.50
2023-12-23T01:51:23.821Z,20.30
2023-12-23T01:53:55.835Z,26.40
2023-12-23T01:56:27.691Z,23.60
2023-12-23T01:59:01.694Z,19.50
2023-12-23T02:01:34.642Z,23.90
2023-12-23T02:04:07.252Z,21.70
2023-12-23T02:06:39.098Z,22.60
2023-12-23T02:09:11.535Z,28.10
2023-12-23T02:11:45.306Z,27.30
2023-12-23T02:14:23.168Z,27.60
2023-12-23T02:16:55.081Z,31.30
2023-12-23T02:19:27.848Z,31.20
2023-12-23T02:22:01.297Z,30.90
2023-12-23T02:24:33.175Z,20.20
2023-12-23T02:27:10.134Z,18.90
2023-12-23T02:29:42.424Z,17.60
2023-12-23T02:32:14.413Z,18.40
2023-12-23T02:34:47.813Z,19.20
2023-12-23T02:37:19.678Z,16.50
2023-12-23T02:39:51.549Z,16.70
2023-12-23T02:42:23.341Z,16.10
2023-12-23T02:44:57.290Z,20.40
2023-12-23T02:47:29.360Z,20.30
2023-12-23T02:50:01.316Z,20.40
2023-12-23T02:52:33.905Z,19.80
2023-12-23T02:55:06.437Z,18.40
2023-12-23T02:57:38.350Z,21.80
2023-12-23T03:00:13.814Z,17.10
2023-12-23T03:02:45.721Z,16.90
2023-12-23T03:05:17.814Z,15.40
2023-12-23T03:07:50.251Z,14.80
2023-12-23T03:10:22.485Z,12.80
2023-12-23T03:12:54.359Z,13.80
2023-12-23T03:15:26.305Z,13.60
2023-12-23T03:17:58.309Z,16.20
2023-12-23T03:20:31.387Z,14.40
2023-12-23T03:23:03.316Z,16.50
2023-12-23T03:25:35.389Z,17.60
2023-12-23T03:28:07.971Z,15.50
2023-12-23T03:30:40.636Z,14.90
2023-12-23T03:33:17.231Z,14.40
2023-12-23T03:35:49.319Z,20.40
2023-12-23T03:38:22.313Z,19.10
2023-12-23T03:40:54.297Z,16.00
2023-12-23T03:43:26.213Z,17.50
2023-12-23T03:45:58.121Z,16.30
2023-12-23T03:48:30.498Z,13.70
2023-12-23T03:51:02.840Z,15.00
2023-12-23T03:53:34.716Z,16.10
2023-12-23T03:56:07.891Z,17.60
2023-12-23T03:58:39.869Z,17.80
2023-12-23T04:01:12.361Z,19.10
2023-12-23T04:03:45.021Z,18.30
2023-12-23T04:06:16.902Z,24.80
2023-12-23T04:08:48.865Z,20.40
2023-12-23T04:11:21.051Z,22.30
2023-12-23T04:13:52.956Z,19.50
2023-12-23T04:16:25.631Z,21.80
2023-12-23T04:18:57.600Z,25.70
2023-12-23T04:21:29.533Z,24.10
2023-12-23T04:24:01.424Z,24.50
2023-12-23T04:26:34.248Z,27.30
2023-12-23T04:29:06.345Z,22.10
2023-12-23T04:31:39.105Z,24.60
2023-12-23T04:34:11.887Z,20.10
2023-12-23T04:36:44.036Z,17.80
2023-12-23T04:39:18.192Z,18.60
2023-12-23T04:41:50.109Z,21.80
2023-12-23T04:44:22.979Z,22.90
2023-12-23T04:46:54.948Z,21.30
2023-12-23T04:49:26.905Z,23.20
2023-12-23T04:51:59.572Z,21.30
2023-12-23T04:54:32.740Z,16.00
2023-12-23T04:57:04.942Z,22.10
2023-12-23T04:59:37.362Z,21.70
2023-12-23T05:02:10.131Z,25.20
2023-12-23T05:04:44.122Z,20.00
2023-12-23T05:07:16.118Z,24.50
2023-12-23T05:09:48.144Z,21.70
2023-12-23T05:12:20.297Z,21.70
2023-12-23T05:14:52.594Z,25.60
2023-12-23T05:17:25.756Z,22.70
2023-12-23T05:19:58.008Z,23.10
2023-12-23T05:22:30.023Z,23.60
2023-12-23T05:25:02.921Z,27.50
2023-12-23T05:27:34.813Z,28.50
2023-12-23T05:30:08.736Z,23.80
2023-12-23T05:32:40.659Z,18.80
2023-12-23T05:35:12.901Z,25.10
2023-12-23T05:37:45.014Z,25.70
2023-12-23T05:40:17.224Z,23.00
2023-12-23T05:42:49.520Z,24.80
2023-12-23T05:45:21.864Z,22.30
2023-12-23T05:47:54.789Z,25.30
2023-12-23T05:50:27.081Z,23.90
2023-12-23T05:52:59.104Z,24.60
2023-12-23T05:55:31.100Z,24.40
2023-12-23T05:58:03.932Z,25.40
2023-12-23T06:00:36.008Z,25.60
2023-12-23T06:03:09.151Z,26.20
2023-12-23T06:05:41.073Z,24.50
2023-12-23T06:08:13.095Z,23.20
2023-12-23T06:10:50.968Z,27.10
2023-12-23T06:13:30.046Z,22.40
2023-12-23T06:16:06.336Z,20.20
2023-12-23T06:18:38.556Z,25.80
2023-12-23T06:21:11.547Z,22.60
2023-12-23T06:23:43.470Z,19.90
2023-12-23T06:26:16.135Z,26.40
2023-12-23T06:28:48.320Z,22.60
2023-12-23T06:31:20.180Z,22.40
2023-12-23T06:33:52.343Z,22.60
2023-12-23T06:36:24.373Z,23.10
2023-12-23T06:38:56.346Z,30.40
2023-12-23T06:41:28.392Z,30.50
2023-12-23T06:44:00.364Z,23.40
2023-12-23T06:46:32.324Z,24.60
2023-12-23T06:49:05.169Z,27.60
2023-12-23T06:51:37.581Z,21.40
2023-12-23T06:54:09.715Z,22.40
2023-12-23T06:56:41.606Z,27.00
2023-12-23T06:59:14.545Z,26.30
2023-12-23T07:01:46.610Z,27.00
2023-12-23T07:04:18.770Z,26.10
2023-12-23T07:06:51.525Z,29.10
2023-12-23T07:09:24.644Z,21.60
2023-12-23T07:11:56.797Z,26.60
2023-12-23T07:14:28.737Z,32.60
2023-12-23T07:17:00.913Z,28.10
2023-12-23T07:19:34.685Z,28.80
2023-12-23T07:22:08.045Z,28.20
2023-12-23T07:24:43.263Z,34.20
2023-12-23T07:27:15.595Z,35.30
2023-12-23T07:29:48.287Z,29.60
2023-12-23T07:32:20.309Z,31.30
2023-12-23T07:34:52.723Z,27.80
2023-12-23T07:37:24.792Z,24.80
2023-12-23T07:39:58.202Z,31.40
2023-12-23T07:42:30.138Z,27.50
2023-12-23T07:45:02.182Z,25.50
2023-12-23T07:47:34.196Z,21.30
2023-12-23T07:50:06.435Z,23.40
2023-12-23T07:52:38.364Z,23.10
2023-12-23T07:55:11.341Z,21.30
2023-12-23T07:57:44.086Z,32.30
2023-12-23T08:00:18.369Z,21.00
2023-12-23T08:02:51.260Z,17.70
2023-12-23T08:05:24.032Z,19.90
2023-12-23T08:07:56.583Z,22.30
2023-12-23T08:10:28.515Z,29.10
2023-12-23T08:13:01.279Z,25.20
2023-12-23T08:15:33.765Z,18.20
2023-12-23T08:18:06.385Z,19.70
2023-12-23T08:20:38.559Z,26.10
2023-12-23T08:23:10.655Z,22.00
2023-12-23T08:25:42.627Z,21.70
2023-12-23T08:28:14.658Z,21.70
2023-12-23T08:30:46.946Z,18.40
2023-12-23T08:33:19.067Z,17.80
2023-12-23T08:35:51.544Z,15.10
2023-12-23T08:38:23.899Z,14.20
2023-12-23T08:40:55.990Z,13.40
2023-12-23T08:43:28.031Z,14.80
2023-12-23T08:46:01.233Z,11.80
2023-12-23T08:48:34.038Z,13.30
2023-12-23T08:51:06.822Z,15.00
2023-12-23T08:53:39.372Z,15.70
2023-12-23T08:56:11.659Z,17.70
2023-12-23T08:58:43.591Z,17.20
2023-12-23T09:01:15.683Z,12.50
2023-12-23T09:03:48.028Z,17.40
2023-12-23T09:06:20.152Z,14.40
2023-12-23T09:08:55.683Z,14.60
2023-12-23T09:11:28.031Z,10.70
2023-12-23T09:14:00.337Z,15.90
2023-12-23T09:16:32.391Z,14.30
2023-12-23T09:19:04.920Z,15.60
2023-12-23T09:21:37.419Z,9.60
2023-12-23T09:24:10.026Z,11.00
2023-12-23T09:26:42.932Z,15.90
2023-12-23T09:29:14.928Z,11.60
2023-12-23T09:31:47.167Z,10.40
2023-12-23T09:34:22.272Z,9.90
2023-12-23T09:36:54.391Z,11.30
2023-12-23T09:39:26.949Z,12.80
2023-12-23T09:41:59.361Z,13.10
2023-12-23T09:44:31.414Z,12.00
2023-12-23T09:47:03.562Z,11.70
2023-12-23T09:49:38.469Z,11.60
2023-12-23T09:52:10.806Z,11.50
2023-12-23T09:54:45.570Z,7.70
2023-12-23T09:57:17.749Z,12.60
2023-12-23T09:59:53.613Z,12.40
2023-12-23T10:02:25.672Z,11.90
2023-12-23T10:04:57.689Z,7.60
2023-12-23T10:07:29.950Z,8.60
2023-12-23T10:10:01.856Z,11.20
2023-12-23T10:12:33.977Z,9.10
2023-12-23T10:15:06.923Z,8.70
2023-12-23T10:17:40.250Z,10.10
2023-12-23T10:20:14.741Z,15.80
2023-12-23T10:22:48.047Z,11.90
2023-12-23T10:25:20.242Z,9.30
2023-12-23T10:27:53.576Z,12.70
2023-12-23T10:30:26.171Z,11.90
2023-12-23T10:32:59.118Z,7.70
2023-12-23T10:35:31.686Z,8.20
2023-12-23T10:38:04.772Z,12.10
2023-12-23T10:40:36.915Z,10.00
2023-12-23T10:43:11.023Z,7.80
2023-12-23T10:45:43.899Z,7.50
2023-12-23T10:48:16.328Z,12.40
2023-12-23T10:50:49.798Z,18.20
2023-12-23T10:53:22.283Z,14.00
2023-12-23T10:55:54.657Z,12.40
2023-12-23T10:58:26.701Z,9.80
2023-12-23T11:00:58.642Z,14.00
2023-12-23T11:03:30.680Z,8.60
2023-12-23T11:06:02.802Z,15.20
2023-12-23T11:08:35.715Z,13.30
2023-12-23T11:11:07.829Z,9.30
2023-12-23T11:13:39.870Z,12.00
2023-12-23T11:16:13.790Z,11.00
2023-12-23T11:18:45.971Z,16.50
2023-12-23T11:21:21.244Z,14.10
2023-12-23T11:23:55.268Z,14.40
2023-12-23T11:26:52.979Z,12.60
2023-12-23T11:29:25.171Z,8.60
2023-12-23T11:32:08.077Z,14.10
2023-12-23T11:34:41.483Z,11.10
2023-12-23T11:37:13.713Z,12.20
2023-12-23T11:39:46.476Z,12.30
2023-12-23T11:42:18.489Z,16.20
2023-12-23T11:44:50.434Z,17.40
2023-12-23T11:47:22.712Z,10.00
2023-12-23T11:49:54.983Z,16.90
2023-12-23T11:52:27.282Z,11.40
2023-12-23T11:54:59.483Z,12.60
2023-12-23T11:57:31.660Z,11.20
2023-12-23T12:00:04.523Z,16.50
2023-12-23T12:02:44.473Z,20.20
2023-12-23T12:05:17.055Z,17.10
2023-12-23T12:07:48.965Z,15.90
2023-12-23T12:10:21.117Z,12.20
2023-12-23T12:12:53.498Z,12.30
2023-12-23T12:15:26.243Z,11.90
2023-12-23T12:17:58.534Z,9.80
2023-12-23T12:20:31.083Z,8.60
2023-12-23T12:23:04.953Z,8.40
2023-12-23T12:25:37.266Z,14.80
2023-12-23T12:28:09.768Z,9.20
2023-12-23T12:30:42.683Z,9.20
2023-12-23T12:33:14.798Z,12.90
2023-12-23T12:35:47.575Z,14.40
2023-12-23T12:38:23.706Z,13.80
2023-12-23T12:40:56.609Z,9.10
2023-12-23T12:43:37.491Z,10.50
2023-12-23T12:46:09.772Z,16.00
2023-12-23T12:48:42.098Z,9.40
2023-12-23T12:51:15.294Z,8.50
2023-12-23T12:53:48.710Z,8.70
2023-12-23T12:56:25.891Z,14.10
2023-12-23T12:58:59.235Z,14.60
2023-12-23T13:01:35.121Z,12.50
2023-12-23T13:04:07.578Z,15.50
2023-12-23T13:06:39.726Z,17.50
2023-12-23T13:09:12.185Z,16.10
2023-12-23T13:11:45.170Z,29.50
2023-12-23T13:14:17.445Z,31.70
2023-12-23T13:16:49.947Z,21.20
2023-12-23T13:19:22.091Z,20.10
2023-12-23T13:21:54.082Z,13.90
2023-12-23T13:24:26.525Z,11.10
2023-12-23T13:26:58.534Z,14.30
2023-12-23T13:29:31.575Z,14.50
2023-12-23T13:32:03.642Z,23.40
2023-12-23T13:34:36.422Z,22.00
2023-12-23T13:37:09.193Z,16.20
2023-12-23T13:39:41.560Z,9.60
2023-12-23T13:42:13.742Z,14.80
2023-12-23T13:44:46.235Z,17.30
2023-12-23T13:47:18.245Z,11.70
2023-12-23T13:49:50.467Z,14.10
2023-12-23T13:52:22.826Z,17.90
2023-12-23T13:54:54.729Z,15.20
2023-12-23T13:57:28.610Z,15.30
2023-12-23T14:00:00.502Z,8.40
2023-12-23T14:02:32.529Z,8.00
2023-12-23T14:05:04.717Z,7.30
2023-12-23T14:07:36.659Z,12.50
2023-12-23T14:10:10.959Z,7.60
2023-12-23T14:12:43.218Z,6.70
2023-12-23T14:15:15.232Z,5.40
2023-12-23T14:17:47.282Z,5.70
2023-12-23T14:20:20.587Z,5.40
2023-12-23T14:22:53.749Z,7.00
2023-12-23T14:25:25.945Z,8.60
2023-12-23T14:27:58.716Z,8.40
2023-12-23T14:30:31.270Z,9.00
2023-12-23T14:33:04.752Z,9.90
2023-12-23T14:35:36.930Z,9.30
2023-12-23T14:38:09.303Z,13.80
2023-12-23T14:40:41.725Z,9.70
2023-12-23T14:43:13.841Z,7.90
2023-12-23T14:45:46.358Z,8.40
